Time;durP1;ratioP1;P1;durP2;ratioP2;P2;SDS_P1;SDS_P2;PMS_P1;PMS_P2;Temp;Humidity;BMP_temperature;BMP_pressure;BME280_temperature;BME280_humidity;BME280_pressure;Samples;Min_cycle;Max_cycle;Signal;HPM_P1;HPM_P2
2023/06/05 00:02:46;;;;;;;8.52;5.40;;;;;;;19.73;72.14;100359.53;10254271;28;96590;-81
2023/06/05 00:07:50;;;;;;;;;;;;;;;19.78;72.15;100356.50;10253966;28;96759;-81
2023/06/05 00:12:54;;;;;;;8.90;5.40;;;;;;;19.55;72.34;100354.69;10262139;28;96724;-81
2023/06/05 00:17:57;;;;;;;10.17;5.67;;;;;;;19.45;72.77;100351.88;10294003;28;96771;-81
2023/06/05 00:23:02;;;;;;;10.00;6.30;;;;;;;19.50;72.69;100340.84;10295200;28;96719;-81
2023/06/05 00:28:05;;;;;;;8.43;5.60;;;;;;;19.49;72.76;100348.03;10293745;28;97180;-81
2023/06/05 00:33:08;;;;;;;8.68;5.40;;;;;;;19.39;73.03;100349.63;10281812;28;96940;-80
2023/06/05 00:38:13;;;;;;;8.98;5.80;;;;;;;19.27;72.98;100361.19;10252411;28;97146;-81
2023/06/05 00:43:17;;;;;;;11.23;6.32;;;;;;;19.20;73.27;100367.94;10253337;28;97388;-81
2023/06/05 00:48:20;;;;;;;12.07;7.43;;;;;;;19.12;73.52;100373.88;10273883;28;96753;-81
2023/06/05 00:53:26;;;;;;;11.13;6.70;;;;;;;19.12;73.38;100378.34;10293613;28;97021;-81
2023/06/05 00:58:31;;;;;;;11.27;6.82;;;;;;;19.13;73.34;100359.56;10293172;28;96729;-81
2023/06/05 01:03:35;;;;;;;10.07;6.53;;;;;;;18.96;73.71;100373.25;10292250;28;96787;-80
2023/06/05 01:08:41;;;;;;;10.13;6.63;;;;;;;19.11;73.42;100377.47;10292974;28;97663;-81
2023/06/05 01:13:52;;;;;;;8.73;5.80;;;;;;;19.00;73.50;100372.09;10293963;28;97675;-81
2023/06/05 01:19:00;;;;;;;10.73;6.50;;;;;;;18.86;74.02;100363.38;10293045;28;96694;-81
2023/06/05 01:24:06;;;;;;;12.68;7.68;;;;;;;18.87;73.91;100362.41;10291893;28;97776;-81
2023/06/05 01:29:15;;;;;;;13.00;7.45;;;;;;;18.85;73.93;100349.16;10295499;28;96725;-81
2023/06/05 01:34:20;;;;;;;10.15;6.88;;;;;;;18.92;73.86;100357.59;10278540;28;97147;-81
2023/06/05 01:39:26;;;;;;;;;;;;;;;18.90;74.16;100356.84;10281190;28;97015;-80
2023/06/05 01:44:30;;;;;;;11.63;6.80;;;;;;;18.85;73.71;100362.50;10299420;28;96852;-81
2023/06/05 01:49:33;;;;;;;11.52;6.75;;;;;;;18.62;74.47;100363.31;10299137;28;96655;-81
2023/06/05 01:54:38;;;;;;;12.38;6.82;;;;;;;18.89;73.76;100364.00;10298171;28;98017;-80
2023/06/05 01:59:43;;;;;;;9.98;6.25;;;;;;;18.89;73.82;100365.81;10298507;28;96835;-80
2023/06/05 02:04:47;;;;;;;11.50;6.70;;;;;;;18.88;73.87;100353.44;10298813;28;96730;-81
2023/06/05 02:09:52;;;;;;;12.88;7.28;;;;;;;18.61;74.80;100342.94;10298105;28;96817;-80
2023/06/05 02:14:57;;;;;;;;;;;;;;;18.82;74.77;100345.88;10297666;28;97665;-81
2023/06/05 02:20:00;;;;;;;12.68;7.00;;;;;;;18.85;74.13;100343.84;10297556;28;96887;-81
2023/06/05 02:25:06;;;;;;;11.43;7.22;;;;;;;18.85;74.40;100343.00;10297717;28;97022;-81
2023/06/05 02:30:11;;;;;;;11.88;7.28;;;;;;;18.77;74.84;100350.69;10296987;28;96958;-81
2023/06/05 02:35:15;;;;;;;12.60;6.70;;;;;;;18.71;74.86;100345.81;10269259;28;96660;-81
2023/06/05 02:40:19;;;;;;;14.00;8.37;;;;;;;18.80;74.68;100342.50;10256847;28;97213;-81
2023/06/05 02:45:23;;;;;;;14.43;7.85;;;;;;;18.63;75.06;100341.00;10256820;28;97020;-81
2023/06/05 02:50:27;;;;;;;13.85;7.53;;;;;;;18.64;74.97;100342.72;10256852;28;96770;-81
2023/06/05 02:55:32;;;;;;;13.90;7.35;;;;;;;18.60;75.17;100343.91;10256797;28;96679;-81
2023/06/05 03:00:37;;;;;;;12.00;7.22;;;;;;;18.49;75.53;100342.97;10255894;28;96725;-81
2023/06/05 03:05:40;;;;;;;13.65;6.43;;;;;;;18.66;75.26;100339.97;10256171;28;97335;-80
2023/06/05 03:10:45;;;;;;;12.43;7.25;;;;;;;18.66;74.99;100335.44;10253459;28;96834;-81
2023/06/05 03:15:48;;;;;;;14.02;7.72;;;;;;;18.59;74.86;100334.19;10255499;28;98187;-80
2023/06/05 03:20:54;;;;;;;14.00;7.93;;;;;;;18.75;74.70;100333.97;10273069;28;96840;-81
2023/06/05 03:25:59;;;;;;;16.00;8.52;;;;;;;18.90;74.35;100332.84;10295826;28;96698;-80
2023/06/05 03:31:02;;;;;;;17.20;9.57;;;;;;;18.99;73.94;100326.84;10295776;28;96728;-81
2023/06/05 03:36:06;;;;;;;14.63;8.70;;;;;;;18.94;74.02;100324.50;10260936;28;96936;-81
2023/06/05 03:41:11;;;;;;;18.63;9.20;;;;;;;18.96;74.13;100322.59;10255248;28;96813;-81
2023/06/05 03:46:18;;;;;;;17.10;8.88;;;;;;;19.03;73.96;100323.84;10255652;28;96979;-81
2023/06/05 03:51:22;;;;;;;17.05;8.98;;;;;;;19.08;73.81;100323.50;10254243;28;96706;-81
2023/06/05 03:56:33;;;;;;;16.75;8.90;;;;;;;19.08;73.89;100318.16;10254589;28;96740;-81
2023/06/05 04:01:37;;;;;;;15.98;8.85;;;;;;;18.94;74.08;100318.31;10253421;28;98006;-81
2023/06/05 04:06:41;;;;;;;15.20;8.23;;;;;;;18.96;74.25;100308.41;10253478;28;97576;-81
2023/06/05 04:11:47;;;;;;;17.80;9.33;;;;;;;19.09;73.85;100314.56;10254769;28;96720;-81
2023/06/05 04:16:50;;;;;;;15.93;8.00;;;;;;;18.85;74.73;100317.16;10253581;28;97535;-81
2023/06/05 04:21:54;;;;;;;18.95;8.68;;;;;;;18.86;74.77;100312.69;10253881;28;96588;-81
2023/06/05 04:27:00;;;;;;;17.63;9.20;;;;;;;18.92;74.65;100309.59;10254041;28;96651;-81
2023/06/05 04:32:04;;;;;;;19.35;8.88;;;;;;;18.86;74.72;100305.56;10253586;28;96778;-80
2023/06/05 04:37:08;;;;;;;17.92;8.52;;;;;;;18.96;74.63;100303.06;10253679;28;97268;-81
2023/06/05 04:42:13;;;;;;;14.45;8.10;;;;;;;18.71;75.21;100300.50;10253224;28;97646;-81
2023/06/05 04:47:17;;;;;;;13.23;7.07;;;;;;;18.72;75.07;100310.19;10282059;28;96665;-81
2023/06/05 04:52:21;;;;;;;15.77;8.13;;;;;;;18.64;74.98;100305.41;10292711;28;96673;-81
2023/06/05 04:57:27;;;;;;;17.42;8.60;;;;;;;18.63;75.24;100311.69;10293599;28;96801;-81
2023/06/05 05:02:30;;;;;;;15.25;8.05;;;;;;;18.64;75.18;100317.88;10294836;28;97137;-81
2023/06/05 05:07:35;;;;;;;17.08;8.63;;;;;;;18.60;75.42;100314.59;10300016;28;97432;-80
2023/06/05 05:12:39;;;;;;;;;;;;;;;18.54;75.92;100311.50;10300574;28;96692;-80
2023/06/05 05:17:43;;;;;;;14.53;8.33;;;;;;;18.56;75.49;100314.94;10299575;28;96773;-80
2023/06/05 05:22:46;;;;;;;15.52;8.55;;;;;;;18.50;75.78;100321.53;10299790;28;97388;-80
2023/06/05 05:27:51;;;;;;;14.65;8.40;;;;;;;18.34;76.14;100314.69;10300543;28;97127;-80
2023/06/05 05:32:55;;;;;;;;;;;;;;;18.28;77.09;100323.13;10281589;28;97233;-81
2023/06/05 05:37:58;;;;;;;15.55;7.80;;;;;;;18.28;76.65;100323.94;10246392;28;96957;-81
2023/06/05 05:43:03;;;;;;;17.25;9.10;;;;;;;18.10;77.00;100317.25;10257855;28;96702;-81
2023/06/05 05:48:07;;;;;;;15.82;8.48;;;;;;;18.15;76.94;100329.31;10258417;28;96657;-81
2023/06/05 05:53:10;;;;;;;14.43;8.32;;;;;;;18.31;76.36;100323.75;10258978;28;97110;-80
2023/06/05 05:58:15;;;;;;;14.88;7.53;;;;;;;18.21;76.90;100335.16;10258185;28;96715;-81
2023/06/05 06:03:18;;;;;;;15.52;8.18;;;;;;;18.06;77.61;100321.94;10258006;28;96809;-80
2023/06/05 06:08:22;;;;;;;15.73;8.07;;;;;;;18.03;77.88;100319.50;10257418;28;97621;-80
2023/06/05 06:13:27;;;;;;;13.73;7.43;;;;;;;18.06;77.46;100331.72;10227967;28;97740;-80
2023/06/05 06:18:31;;;;;;;15.48;8.35;;;;;;;17.97;77.88;100327.03;10217985;28;97098;-81
2023/06/05 06:23:35;;;;;;;12.07;6.70;;;;;;;18.17;77.35;100321.19;10217113;28;96787;-80
2023/06/05 06:28:39;;;;;;;14.98;7.55;;;;;;;18.27;76.96;100326.72;10264478;28;96654;-80
2023/06/05 06:33:44;;;;;;;14.77;7.50;;;;;;;18.38;77.13;100326.84;10274094;22;96654;-80
2023/06/05 06:38:47;;;;;;;14.45;7.63;;;;;;;18.57;76.55;100329.94;10253773;28;96870;-80
2023/06/05 06:43:52;;;;;;;14.25;6.97;;;;;;;18.71;76.42;100336.00;10247635;28;96637;-81
2023/06/05 06:48:55;;;;;;;12.98;6.90;;;;;;;18.77;76.21;100337.34;10216230;28;96765;-81
2023/06/05 06:53:58;;;;;;;12.90;6.82;;;;;;;18.58;77.07;100327.16;10216060;28;96757;-81
2023/06/05 06:59:11;;;;;;;12.55;7.00;;;;;;;18.61;77.12;100332.25;10216013;28;96782;-80
2023/06/05 07:04:19;;;;;;;11.70;7.25;;;;;;;18.59;77.04;100320.84;10216249;28;96694;-81
2023/06/05 07:09:23;;;;;;;12.55;6.80;;;;;;;18.60;77.20;100335.03;10216384;28;96695;-81
2023/06/05 07:14:27;;;;;;;14.50;7.63;;;;;;;18.80;76.61;100337.16;10215097;28;97688;-81
2023/06/05 07:19:32;;;;;;;14.77;7.32;;;;;;;19.08;76.09;100329.69;10238278;28;96644;-81
2023/06/05 07:24:36;;;;;;;10.55;6.60;;;;;;;19.33;75.88;100330.56;10253570;28;96918;-81
2023/06/05 07:29:41;;;;;;;11.07;6.88;;;;;;;19.66;74.80;100323.59;10255478;28;96947;-81
2023/06/05 07:34:45;;;;;;;9.95;6.32;;;;;;;20.19;73.46;100314.97;10216489;28;96777;-80
2023/06/05 07:39:50;;;;;;;11.37;7.20;;;;;;;19.95;73.88;100311.53;10214723;28;96764;-80
2023/06/05 07:44:54;;;;;;;9.23;6.03;;;;;;;20.25;73.27;100317.13;10214294;28;96715;-81
2023/06/05 07:49:59;;;;;;;10.70;6.45;;;;;;;20.31;73.34;100310.50;10214684;28;96658;-81
2023/06/05 07:55:04;;;;;;;9.23;6.45;;;;;;;20.67;72.11;100310.25;10214797;28;96796;-81
2023/06/05 08:00:27;;;;;;;9.52;5.97;;;;;;;20.38;73.03;100312.56;10208775;28;96652;-81
2023/06/05 08:05:30;;;;;;;9.85;6.40;;;;;;;20.50;72.99;100312.59;10213850;28;96896;-81
2023/06/05 08:10:33;;;;;;;9.48;5.90;;;;;;;20.44;72.77;100308.56;10214220;28;96814;-81
2023/06/05 08:15:38;;;;;;;9.27;6.10;;;;;;;20.58;72.53;100294.97;10183234;28;97686;-81
2023/06/05 08:20:41;;;;;;;8.65;5.43;;;;;;;20.91;71.67;100302.09;10174042;28;97695;-81
2023/06/05 08:25:45;;;;;;;7.88;5.75;;;;;;;20.98;71.66;100297.94;10183066;28;96847;-81
2023/06/05 08:30:51;;;;;;;9.70;6.00;;;;;;;21.27;70.79;100291.94;10213360;28;96535;-81
2023/06/05 08:35:55;;;;;;;8.50;5.30;;;;;;;21.40;71.09;100300.63;10214120;28;97304;-81
2023/06/05 08:41:02;;;;;;;7.40;5.25;;;;;;;21.44;70.23;100304.75;10220556;28;96825;-81
2023/06/05 08:46:09;;;;;;;7.97;5.10;;;;;;;21.57;70.06;100301.91;10220851;28;97065;-81
2023/06/05 08:51:14;;;;;;;7.68;4.82;;;;;;;21.85;69.48;100298.56;10220795;28;96771;-81
2023/06/05 08:56:18;;;;;;;7.75;5.35;;;;;;;21.80;69.25;100290.06;10220050;28;97723;-81
2023/06/05 09:01:22;;;;;;;;;;;;;;;21.95;68.43;100280.72;10220825;28;97351;-81
2023/06/05 09:06:27;;;;;;;7.10;4.90;;;;;;;22.26;68.58;100279.78;10218496;28;96896;-81
2023/06/05 09:11:32;;;;;;;8.43;5.00;;;;;;;22.56;68.09;100281.59;10215344;28;96710;-81
2023/06/05 09:16:38;;;;;;;7.85;5.85;;;;;;;23.05;67.26;100273.59;10219422;28;97116;-81
2023/06/05 09:21:54;;;;;;;6.90;4.75;;;;;;;23.13;66.29;100263.00;10220063;28;97918;-81
2023/06/05 09:26:59;;;;;;;8.10;5.15;;;;;;;23.25;66.57;100251.13;10218364;28;96825;-81
2023/06/05 09:32:05;;;;;;;6.50;4.78;;;;;;;23.51;66.42;100244.19;10218733;28;96738;-81
2023/06/05 09:37:09;;;;;;;7.40;4.57;;;;;;;23.74;65.78;100239.41;10218581;28;97662;-81
2023/06/05 09:42:13;;;;;;;6.75;4.78;;;;;;;23.87;65.77;100239.09;10218907;28;96762;-81
2023/06/05 09:47:23;;;;;;;7.13;4.57;;;;;;;23.96;65.41;100240.91;10217786;28;96691;-81
2023/06/05 09:52:26;;;;;;;5.60;4.45;;;;;;;24.37;64.42;100235.13;10218810;28;97869;-81
2023/06/05 09:57:32;;;;;;;6.13;4.37;;;;;;;24.57;64.48;100232.19;10216863;28;96634;-81
2023/06/05 10:02:38;;;;;;;5.95;4.03;;;;;;;24.54;64.80;100224.44;10217618;28;96756;-81
2023/06/05 10:07:42;;;;;;;6.22;4.45;;;;;;;24.35;64.55;100212.91;10217336;28;97615;-81
2023/06/05 10:12:46;;;;;;;5.78;4.47;;;;;;;24.68;63.58;100215.84;10217081;28;97703;-81
2023/06/05 10:17:50;;;;;;;7.32;4.70;;;;;;;24.81;62.86;100210.94;10217082;28;96655;-81
2023/06/05 10:22:55;;;;;;;5.38;4.20;;;;;;;25.14;62.96;100201.38;10217370;28;96714;-81
2023/06/05 10:28:17;;;;;;;6.00;4.20;;;;;;;25.48;63.13;100196.97;10251312;28;96685;-81
2023/06/05 10:33:43;;;;;;;5.28;3.47;;;;;;;25.40;60.67;100187.94;10257854;28;97463;-81
2023/06/05 10:38:47;;;;;;;4.50;3.30;;;;;;;25.55;61.01;100187.22;10257387;28;97523;-81
2023/06/05 10:43:55;;;;;;;4.57;3.28;;;;;;;25.84;60.34;100184.25;10256192;28;96620;-81
2023/06/05 10:49:15;;;;;;;4.60;3.50;;;;;;;26.05;59.47;100181.16;10255508;28;96631;-81
2023/06/05 10:54:52;;;;;;;4.40;3.03;;;;;;;26.04;56.90;100183.00;10256633;28;96655;-81
2023/06/05 11:00:10;;;;;;;4.18;3.15;;;;;;;26.35;57.90;100172.56;10254593;28;97547;-81
2023/06/05 11:05:15;;;;;;;5.30;3.70;;;;;;;26.54;57.98;100162.34;10255914;28;96829;-81
2023/06/05 11:10:21;;;;;;;3.58;3.05;;;;;;;26.82;57.80;100163.78;10256085;28;96563;-81
2023/06/05 11:15:47;;;;;;;4.70;3.78;;;;;;;26.97;58.42;100161.28;10223384;28;96886;-81
2023/06/05 11:20:51;;;;;;;6.07;3.80;;;;;;;27.09;58.19;100151.84;10255882;28;96769;-81
2023/06/05 11:26:19;;;;;;;4.97;3.75;;;;;;;27.13;57.28;100149.66;10255805;28;96748;-81
2023/06/05 11:31:31;;;;;;;5.45;3.97;;;;;;;27.27;56.67;100132.78;10255624;28;96921;-81
2023/06/05 11:36:36;;;;;;;5.13;3.78;;;;;;;27.48;57.29;100130.38;10253930;28;97016;-81
2023/06/05 11:41:45;;;;;;;5.80;4.70;;;;;;;27.41;57.21;100124.81;10253948;28;96719;-81
2023/06/05 11:46:48;;;;;;;6.90;4.80;;;;;;;27.53;56.58;100126.13;10254545;28;97260;-81
2023/06/05 11:51:53;;;;;;;6.30;4.03;;;;;;;27.69;55.79;100119.88;10254175;28;97623;-81
2023/06/05 11:57:07;;;;;;;5.60;4.10;;;;;;;27.87;56.12;100123.22;10254672;28;97793;-82
2023/06/05 12:02:10;;;;;;;6.32;4.53;;;;;;;27.97;55.22;100115.75;10254499;28;96826;-81
2023/06/05 12:07:27;;;;;;;5.75;3.97;;;;;;;28.03;55.08;100112.34;10253114;28;96804;-81
2023/06/05 12:12:33;;;;;;;5.25;3.60;;;;;;;28.11;53.88;100101.50;10237492;28;96862;-81
2023/06/05 12:17:36;;;;;;;3.75;2.92;;;;;;;27.99;53.20;100097.50;10214696;28;97787;-81
2023/06/05 12:22:41;;;;;;;3.63;2.63;;;;;;;27.97;53.18;100086.84;10213453;28;96816;-81
2023/06/05 12:27:46;;;;;;;5.30;3.10;;;;;;;28.12;52.03;100089.63;10173538;28;97565;-81
2023/06/05 12:32:51;;;;;;;3.88;3.20;;;;;;;28.17;51.46;100087.25;10171965;28;96763;-81
2023/06/05 12:38:01;;;;;;;3.58;2.83;;;;;;;28.46;51.25;100081.19;10172868;28;96862;-81
2023/06/05 12:43:04;;;;;;;3.67;2.85;;;;;;;28.47;51.36;100075.59;10201354;28;96760;-81
2023/06/05 12:48:10;;;;;;;4.75;3.40;;;;;;;28.45;51.26;100074.09;10212703;28;96811;-81
2023/06/05 12:53:14;;;;;;;4.43;2.90;;;;;;;28.54;50.69;100063.03;10212791;28;96659;-81
2023/06/05 12:58:18;;;;;;;5.45;3.47;;;;;;;28.66;51.00;100060.75;10213078;28;97258;-81
2023/06/05 13:03:22;;;;;;;;;;;;;;;28.90;50.35;100050.56;10213020;28;97932;-81
2023/06/05 13:08:27;;;;;;;3.83;2.80;;;;;;;29.03;50.06;100047.28;10213443;28;97901;-81
2023/06/05 13:13:32;;;;;;;4.00;3.00;;;;;;;29.05;49.96;100045.22;10212738;28;96894;-81
2023/06/05 13:18:36;;;;;;;4.55;3.50;;;;;;;28.97;50.07;100043.41;10212725;28;97310;-81
2023/06/05 13:23:41;;;;;;;4.72;3.65;;;;;;;28.86;49.30;100045.69;10213293;28;96624;-82
2023/06/05 13:28:45;;;;;;;4.70;3.65;;;;;;;29.09;48.99;100039.25;10218667;28;96818;-81
2023/06/05 13:33:49;;;;;;;6.15;4.07;;;;;;;29.14;49.06;100041.38;10243499;28;96992;-81
2023/06/05 13:38:53;;;;;;;6.78;4.40;;;;;;;29.24;49.16;100036.56;10258966;28;97369;-81
2023/06/05 13:43:58;;;;;;;6.45;4.53;;;;;;;29.21;49.41;100033.38;10258813;28;97664;-81
2023/06/05 13:49:02;;;;;;;6.55;4.30;;;;;;;29.27;49.00;100035.34;10257990;28;97561;-81
2023/06/05 13:54:06;;;;;;;7.00;4.75;;;;;;;29.37;48.96;100034.03;10258233;28;96759;-81
2023/06/05 13:59:09;;;;;;;6.65;4.88;;;;;;;29.52;49.35;100025.97;10259201;28;96634;-81
2023/06/05 14:04:13;;;;;;;8.13;5.13;;;;;;;29.21;49.73;100020.66;10257727;28;96812;-81
2023/06/05 14:09:18;;;;;;;6.53;5.45;;;;;;;29.26;49.85;100028.25;10257451;28;96736;-81
2023/06/05 14:14:23;;;;;;;8.35;5.72;;;;;;;29.17;50.27;100030.19;10197909;28;96596;-82
2023/06/05 14:19:26;;;;;;;7.32;5.47;;;;;;;29.31;49.96;100031.25;10177388;28;96708;-81
2023/06/05 14:24:30;;;;;;;8.65;5.82;;;;;;;29.28;50.33;100029.72;10200836;28;97700;-81
2023/06/05 14:29:35;;;;;;;8.35;5.97;;;;;;;29.24;50.44;100024.88;10216788;28;96842;-81
2023/06/05 14:34:38;;;;;;;8.88;6.03;;;;;;;29.12;50.21;100022.59;10216423;28;96847;-81
2023/06/05 14:39:43;;;;;;;9.43;6.28;;;;;;;29.33;50.17;100013.75;10217277;28;97693;-81
2023/06/05 14:44:46;;;;;;;8.68;6.85;;;;;;;29.04;50.61;100020.00;10216744;28;96703;-81
2023/06/05 14:49:50;;;;;;;9.20;6.82;;;;;;;29.22;49.93;100011.50;10217336;28;96602;-81
2023/06/05 14:54:55;;;;;;;7.63;6.13;;;;;;;29.36;50.34;100007.97;10216342;28;96818;-81
2023/06/05 15:00:08;;;;;;;7.30;5.82;;;;;;;29.16;49.80;100002.25;10216631;28;97646;-81
2023/06/05 15:05:14;;;;;;;8.73;5.70;;;;;;;29.04;50.04;99998.31;10214607;28;97686;-81
2023/06/05 15:10:19;;;;;;;6.88;5.38;;;;;;;29.36;49.31;99996.28;10216031;28;97876;-81
2023/06/05 15:15:23;;;;;;;8.63;5.18;;;;;;;29.33;48.63;99992.06;10235348;28;97737;-81
2023/06/05 15:20:26;;;;;;;7.13;5.13;;;;;;;29.20;48.86;99986.47;10255794;28;97249;-81
2023/06/05 15:25:33;;;;;;;9.02;5.13;;;;;;;29.05;48.95;99988.31;10255434;28;97201;-81
2023/06/05 15:30:36;;;;;;;7.80;5.30;;;;;;;28.98;49.03;99990.91;10255385;28;96738;-81
2023/06/05 15:35:42;;;;;;;7.95;5.45;;;;;;;29.04;48.26;100000.16;10255004;28;96718;-79
2023/06/05 15:40:47;;;;;;;9.85;6.50;;;;;;;28.68;49.41;100004.53;10256102;28;97287;-81
2023/06/05 15:45:51;;;;;;;9.13;6.22;;;;;;;28.68;49.95;100001.81;10254385;28;96837;-81
2023/06/05 15:50:57;;;;;;;9.98;6.68;;;;;;;28.58;49.99;99988.56;10253577;28;96714;-82
2023/06/05 15:56:01;;;;;;;8.10;6.50;;;;;;;28.29;50.42;99993.81;10253538;28;96712;-81
2023/06/05 16:01:05;;;;;;;10.93;7.40;;;;;;;28.21;50.93;100001.13;10254188;28;96674;-81
2023/06/05 16:06:09;;;;;;;11.15;7.60;;;;;;;27.92;51.51;99999.97;10253391;28;97520;-81
2023/06/05 16:11:13;;;;;;;9.27;6.70;;;;;;;27.77;51.74;100007.13;10245605;28;96824;-81
2023/06/05 16:16:17;;;;;;;8.00;6.00;;;;;;;27.69;51.69;99999.06;10173696;28;97014;-81
2023/06/05 16:21:20;;;;;;;9.38;5.95;;;;;;;27.56;52.73;99993.31;10180093;28;97080;-81
2023/06/05 16:26:25;;;;;;;8.25;5.90;;;;;;;27.48;53.10;99987.94;10213134;28;96596;-81
2023/06/05 16:31:28;;;;;;;8.15;5.63;;;;;;;27.39;53.09;99986.28;10213829;28;96700;-81
2023/06/05 16:36:31;;;;;;;7.40;5.75;;;;;;;27.21;53.86;99976.72;10212752;28;96932;-81
2023/06/05 16:41:36;;;;;;;8.67;5.80;;;;;;;27.19;53.57;99982.31;10213576;28;96983;-81
2023/06/05 16:46:39;;;;;;;7.90;5.60;;;;;;;27.06;53.54;99990.09;10211554;28;96700;-81
2023/06/05 16:51:43;;;;;;;7.55;5.53;;;;;;;27.08;53.55;99985.34;10213122;28;97780;-81
2023/06/05 16:56:47;;;;;;;6.80;5.22;;;;;;;27.13;53.84;99985.69;10214445;28;96548;-81
2023/06/05 17:01:51;;;;;;;9.05;5.80;;;;;;;27.07;53.79;99982.84;10219607;28;96735;-81
2023/06/05 17:06:54;;;;;;;7.80;5.43;;;;;;;27.22;53.85;99994.59;10219448;28;96666;-82
2023/06/05 17:11:59;;;;;;;7.78;5.47;;;;;;;27.15;53.68;99990.94;10221793;28;96864;-82
2023/06/05 17:17:02;;;;;;;7.65;5.57;;;;;;;27.18;53.36;99996.00;10259792;28;97821;-82
2023/06/05 17:22:06;;;;;;;6.10;3.92;;;;;;;27.21;53.48;99996.50;10260374;28;96890;-81
2023/06/05 17:27:10;;;;;;;;;;;;;;;27.23;53.13;99993.63;10259833;28;97706;-81
2023/06/05 17:32:14;;;;;;;6.65;5.05;;;;;;;27.11;53.50;99984.19;10258483;28;96651;-82
2023/06/05 17:37:17;;;;;;;5.82;4.15;;;;;;;27.06;53.23;99994.66;10257310;28;96829;-81
2023/06/05 17:42:22;;;;;;;;;;;;;;;27.00;53.00;99996.16;10259090;28;96707;-81
2023/06/05 17:47:25;;;;;;;;;;;;;;;26.86;53.21;100008.50;10258327;28;96675;-81
2023/06/05 17:52:28;;;;;;;5.97;4.65;;;;;;;26.85;53.34;100005.97;10259055;28;96714;-81
2023/06/05 17:57:33;;;;;;;6.10;4.13;;;;;;;26.72;53.43;100011.88;10258482;28;96839;-81
2023/06/05 18:02:36;;;;;;;5.65;4.25;;;;;;;26.51;53.60;100000.75;10258186;28;97366;-81
2023/06/05 18:07:40;;;;;;;7.30;4.28;;;;;;;26.40;54.31;99998.34;10256657;28;96726;-81
2023/06/05 18:12:44;;;;;;;6.28;4.60;;;;;;;26.37;54.75;100006.78;10233275;28;97956;-82
2023/06/05 18:17:47;;;;;;;5.70;4.28;;;;;;;26.26;54.96;100022.44;10217609;28;97692;-82
2023/06/05 18:22:51;;;;;;;5.57;4.05;;;;;;;26.18;55.13;100020.56;10242081;28;96825;-81
2023/06/05 18:27:57;;;;;;;7.60;4.37;;;;;;;26.09;54.99;100013.44;10256262;28;96793;-82
2023/06/05 18:33:00;;;;;;;5.95;4.25;;;;;;;26.17;54.65;100015.34;10256995;28;97006;-82
2023/06/05 18:38:03;;;;;;;6.30;4.63;;;;;;;26.07;54.91;100022.72;10256039;28;96809;-81
2023/06/05 18:43:08;;;;;;;6.20;4.43;;;;;;;26.12;54.94;100010.44;10257145;28;96964;-82
2023/06/05 18:48:11;;;;;;;5.80;3.85;;;;;;;26.12;54.97;100009.59;10256538;28;97272;-82
2023/06/05 18:53:14;;;;;;;5.30;3.90;;;;;;;25.90;55.49;100001.09;10256567;28;96723;-80
2023/06/05 18:58:19;;;;;;;5.43;4.18;;;;;;;25.87;55.72;100009.53;10256056;28;97942;-81
2023/06/05 19:03:23;;;;;;;6.22;4.15;;;;;;;25.77;55.65;100010.66;10257134;28;98882;-80
2023/06/05 19:08:47;;;;;;;4.93;3.80;;;;;;;25.61;56.16;100007.88;10225359;22;98226;-81
2023/06/05 19:13:51;;;;;;;4.88;3.90;;;;;;;25.59;56.36;100012.56;10240988;28;96808;-82
2023/06/05 19:18:55;;;;;;;7.03;4.65;;;;;;;25.46;56.78;100017.56;10254963;28;97071;-81
2023/06/05 19:23:58;;;;;;;6.47;4.65;;;;;;;25.35;57.32;100017.84;10254834;28;97032;-81
2023/06/05 19:29:03;;;;;;;6.75;4.72;;;;;;;25.27;57.22;100032.13;10254793;28;96834;-81
2023/06/05 19:34:07;;;;;;;6.60;4.38;;;;;;;25.28;57.27;100025.72;10255248;28;96635;-81
2023/06/05 19:39:10;;;;;;;;;;;;;;;25.28;57.40;100019.47;10255768;28;96775;-82
2023/06/05 19:44:15;;;;;;;6.43;4.20;;;;;;;25.17;57.58;100030.53;10255410;28;97610;-82
2023/06/05 19:49:18;;;;;;;6.65;4.15;;;;;;;25.02;58.64;100032.97;10254468;28;97661;-81
2023/06/05 19:54:22;;;;;;;7.20;4.80;;;;;;;24.91;59.22;100029.66;10255566;28;96899;-82
2023/06/05 19:59:27;;;;;;;5.90;4.15;;;;;;;24.73;60.11;100025.16;10254901;28;96869;-82
2023/06/05 20:04:30;;;;;;;7.50;4.28;;;;;;;24.61;60.77;100026.41;10247470;28;97174;-81
2023/06/05 20:09:33;;;;;;;7.73;4.70;;;;;;;24.41;61.67;100032.91;10213403;28;97761;-81
2023/06/05 20:14:56;;;;;;;6.75;4.85;;;;;;;24.31;61.78;100039.38;10207866;28;96741;-81
2023/06/05 20:19:59;;;;;;;5.88;4.03;;;;;;;24.25;61.75;100045.34;10214159;28;96558;-81
2023/06/05 20:25:04;;;;;;;6.33;4.37;;;;;;;24.14;62.25;100049.09;10213777;28;96810;-81
2023/06/05 20:30:09;;;;;;;7.57;4.93;;;;;;;24.12;62.38;100058.28;10213594;28;96685;-81
2023/06/05 20:35:14;;;;;;;6.38;4.65;;;;;;;24.02;62.86;100058.34;10212968;28;97432;-81
2023/06/05 20:40:20;;;;;;;6.85;4.93;;;;;;;23.94;63.11;100058.28;10213742;28;97884;-82
2023/06/05 20:45:27;;;;;;;7.88;4.95;;;;;;;23.72;63.84;100061.34;10214143;28;97320;-81
2023/06/05 20:50:30;;;;;;;6.55;4.15;;;;;;;23.64;nan;100061.25;10213002;28;96749;-81
2023/06/05 20:55:34;;;;;;;7.03;5.13;;;;;;;23.36;64.99;100051.41;10212528;28;112281;-81
2023/06/05 21:00:39;;;;;;;6.57;4.50;;;;;;;23.30;65.25;100046.66;10212027;28;96654;-81
2023/06/05 21:05:42;;;;;;;6.72;4.72;;;;;;;23.24;65.37;100060.63;10211894;28;97226;-81
2023/06/05 21:10:45;;;;;;;7.60;4.57;;;;;;;23.28;65.31;100065.59;10212996;28;96663;-81
2023/06/05 21:15:50;;;;;;;7.27;5.20;;;;;;;23.16;65.42;100076.63;10211963;28;97699;-81
2023/06/05 21:20:53;;;;;;;6.47;4.68;;;;;;;22.96;66.05;100074.94;10212492;28;97650;-81
2023/06/05 21:25:57;;;;;;;7.68;5.13;;;;;;;22.89;66.22;100073.88;10212043;28;96703;-81
2023/06/05 21:31:04;;;;;;;5.63;4.27;;;;;;;22.79;66.38;100078.38;10213024;28;96888;-81
2023/06/05 21:36:08;;;;;;;6.22;4.15;;;;;;;22.69;66.60;100086.41;10212983;28;97116;-81
2023/06/05 21:41:11;;;;;;;6.20;4.30;;;;;;;22.54;67.22;100088.63;10211677;28;96791;-81
2023/06/05 21:46:16;;;;;;;7.10;4.68;;;;;;;22.54;67.16;100095.88;10216388;28;96705;-81
2023/06/05 21:51:19;;;;;;;6.13;4.63;;;;;;;22.52;67.29;100085.25;10217155;28;96610;-81
2023/06/05 21:56:23;;;;;;;6.30;4.22;;;;;;;22.41;67.61;100087.22;10218285;28;97195;-81
2023/06/05 22:01:27;;;;;;;6.07;4.38;;;;;;;22.43;67.54;100091.47;10218512;28;96904;-81
2023/06/05 22:06:32;;;;;;;7.25;4.93;;;;;;;22.32;67.61;100091.59;10217251;28;96837;-81
2023/06/05 22:11:35;;;;;;;6.85;4.32;;;;;;;22.29;67.66;100097.22;10217695;28;96719;-81
2023/06/05 22:16:41;;;;;;;7.05;4.38;;;;;;;22.18;67.83;100100.03;10217714;28;97827;-81
2023/06/05 22:21:47;;;;;;;5.72;4.18;;;;;;;22.11;68.12;100096.19;10249993;28;96873;-81
2023/06/05 22:26:50;;;;;;;6.25;4.07;;;;;;;21.90;68.83;100100.75;10258280;28;96749;-81
2023/06/05 22:31:55;;;;;;;7.85;4.53;;;;;;;21.77;69.09;100099.28;10257763;28;97594;-81
2023/06/05 22:37:02;;;;;;;5.88;4.20;;;;;;;21.82;69.27;100113.13;10256196;28;97899;-81
2023/06/05 22:42:06;;;;;;;5.50;4.03;;;;;;;21.85;69.18;100112.88;10256120;28;97115;-81
2023/06/05 22:47:12;;;;;;;6.22;4.28;;;;;;;21.74;69.36;100105.78;10256672;28;97697;-81
2023/06/05 22:52:15;;;;;;;7.70;4.50;;;;;;;21.65;69.46;100106.59;10256187;28;96705;-81
2023/06/05 22:57:18;;;;;;;6.97;4.57;;;;;;;21.34;70.20;100104.88;10256547;28;97692;-81
2023/06/05 23:02:23;;;;;;;7.15;3.95;;;;;;;21.40;70.04;100107.84;10255936;28;96868;-81
2023/06/05 23:07:27;;;;;;;6.10;4.32;;;;;;;21.61;68.87;100107.81;10226394;28;96716;-81
2023/06/05 23:12:30;;;;;;;7.27;4.90;;;;;;;21.60;68.80;100099.91;10216416;28;97718;-81
2023/06/05 23:17:35;;;;;;;9.55;4.53;;;;;;;21.38;69.85;100112.50;10216704;28;97683;-81
2023/06/05 23:22:39;;;;;;;7.45;4.60;;;;;;;21.34;70.33;100113.75;10215335;28;97372;-81
2023/06/05 23:27:42;;;;;;;6.65;3.83;;;;;;;21.45;68.90;100102.94;10215913;28;97487;-81